Main page
METAR-TAF:

METAR-TAF

Airports :

Khartoum International Airport

Khartoum, Sudan

latitude: 15-36N, longitude: 032-33E, elevation: 382 m

Current weather observation

The report was made 35 minutes ago, at 21:30 UTC
Wind 6 kt from the South
Temperature 30°C
Humidity 43%
Pressure 1009 hPa
Visibility 10 km or more
no clouds below 1500 m and no cumulonimbus

METAR: HSSS 172130Z 19006KT CAVOK 30/16 Q1009 NOSIG

Time: 01:05 (22:05 UTC)

Forecast

The report was made 5 hours and 5 minutes ago, at 17:00 UTC
Forecast valid from 17 at 18 UTC to 18 at 24 UTC
Wind 10 kt from the West/Southwest with gusts up to 20 kt
Visibility 10 km or more
Few clouds at a height of 4000 ft
Scattered clouds at a height of 14000 ft
Probability 30%
from 18 at 00 UTC to 18 at 03 UTC
Visibility: 6000 m
Broken clouds at a height of 14000 ft
rain showers

TAF: HSSS 171700Z 1718/1824 24010G20KT 9999 FEW040 SCT140 PROB30 1800/1803 6000 SHRA BKN140

Weather observations and forecasts of more than 4000 airports (METAR and TAF reports).

The available stations are represented by yellow and red dots on the map.

Hover mouse over dot to see the name of the station.

Then click to see weather observations and forecasts.

To change the map : click on the green buttons with a black cross to zoom in, on the green button with a dash to zoom out, or on the green arrows for adjacent maps.


METAR-TAF: